Time;durP1;ratioP1;P1;durP2;ratioP2;P2;SDS_P1;SDS_P2;PMS_P1;PMS_P2;Temp;Humidity;BMP_temperature;BMP_pressure;BME280_temperature;BME280_humidity;BME280_pressure;Samples;Min_cycle;Max_cycle;Signal;HPM_P1;HPM_P2
2021/09/24 00:02:13;;;;;;;0.30;0.30;;;16.30;85.60;;;;;;4896782;29;20100;-78
2021/09/24 00:04:39;;;;;;;0.28;0.28;;;16.30;85.60;;;;;;4877685;29;20051;-77
2021/09/24 00:07:05;;;;;;;0.40;0.32;;;16.20;85.50;;;;;;4851676;29;20037;-77
2021/09/24 00:09:31;;;;;;;0.65;0.38;;;16.20;85.60;;;;;;4879635;29;20037;-77
2021/09/24 00:11:56;;;;;;;1.50;0.30;;;16.20;85.70;;;;;;4894350;29;20555;-77
2021/09/24 00:14:22;;;;;;;1.45;0.50;;;16.20;85.70;;;;;;4864083;29;20029;-77
2021/09/24 00:16:48;;;;;;;0.30;0.30;;;16.20;85.80;;;;;;4879693;29;20049;-77
2021/09/24 00:19:14;;;;;;;0.80;0.35;;;16.20;85.80;;;;;;4881610;29;20067;-77
2021/09/24 00:21:40;;;;;;;0.47;0.40;;;16.20;85.80;;;;;;4879216;29;20112;-77
2021/09/24 00:24:06;;;;;;;0.77;0.40;;;16.20;85.80;;;;;;4881367;29;20384;-77
2021/09/24 00:26:31;;;;;;;0.40;0.40;;;16.20;85.80;;;;;;4880858;29;20409;-77
2021/09/24 00:28:58;;;;;;;0.75;0.60;;;16.20;85.80;;;;;;4893922;29;20099;-76
2021/09/24 00:31:24;;;;;;;0.70;0.40;;;16.20;85.90;;;;;;4850370;29;20135;-77
2021/09/24 00:33:51;;;;;;;1.52;0.45;;;16.20;85.90;;;;;;4849845;29;21006;-77
2021/09/24 00:36:16;;;;;;;0.68;0.30;;;16.20;85.90;;;;;;4847023;29;20052;-77
2021/09/24 00:38:42;;;;;;;0.75;0.38;;;16.10;85.90;;;;;;4832081;29;20057;-76
2021/09/24 00:41:09;;;;;;;0.35;0.35;;;16.10;85.90;;;;;;4846863;29;20049;-77
2021/09/24 00:43:35;;;;;;;0.30;0.30;;;16.10;86.00;;;;;;4846595;29;20496;-76
2021/09/24 00:46:02;;;;;;;0.30;0.30;;;16.20;86.00;;;;;;4846820;29;20037;-78
2021/09/24 00:48:28;;;;;;;0.30;0.30;;;16.10;86.00;;;;;;4846967;29;20037;-76
2021/09/24 00:50:54;;;;;;;1.02;0.40;;;16.10;86.00;;;;;;4861810;29;20076;-76
2021/09/24 00:53:20;;;;;;;1.15;0.57;;;16.10;86.10;;;;;;4879152;29;20076;-76
2021/09/24 00:55:47;;;;;;;0.47;0.20;;;16.10;86.10;;;;;;4878176;29;20044;-76
2021/09/24 00:58:13;;;;;;;0.52;0.32;;;16.10;86.10;;;;;;4878697;29;20556;-78
2021/09/24 01:00:39;;;;;;;1.30;0.40;;;16.10;86.10;;;;;;4846420;29;20124;-77
2021/09/24 01:03:04;;;;;;;0.85;0.47;;;16.00;86.00;;;;;;4861896;29;20069;-77
2021/09/24 01:05:31;;;;;;;1.20;0.50;;;16.10;86.20;;;;;;4878810;29;20511;-77
2021/09/24 01:07:56;;;;;;;0.32;0.32;;;16.00;86.10;;;;;;4878771;29;20041;-77
2021/09/24 01:10:23;;;;;;;2.40;0.40;;;16.10;86.20;;;;;;4846538;29;20128;-76
2021/09/24 01:12:49;;;;;;;0.47;0.43;;;16.00;86.10;;;;;;4846701;29;20052;-76
2021/09/24 01:15:17;;;;;;;1.13;0.45;;;16.00;86.10;;;;;;4878965;29;20049;-77
2021/09/24 01:17:44;;;;;;;0.40;0.40;;;16.00;86.20;;;;;;4865575;29;20543;-76
2021/09/24 01:20:16;;;;;;;0.43;0.30;;;16.00;86.20;;;;;;4879490;29;20536;-77
2021/09/24 01:22:42;;;;;;;0.32;0.30;;;16.00;86.20;;;;;;4862437;29;20144;-76
2021/09/24 01:25:11;;;;;;;0.35;0.20;;;16.00;86.20;;;;;;4861775;29;20412;-76
2021/09/24 01:27:37;;;;;;;0.40;0.20;;;16.00;86.30;;;;;;4878730;29;20514;-77
2021/09/24 01:30:05;;;;;;;0.30;0.30;;;16.00;86.30;;;;;;4861804;29;20174;-77
2021/09/24 01:32:31;;;;;;;2.10;0.30;;;16.00;86.30;;;;;;4861763;29;20763;-76
2021/09/24 01:35:00;;;;;;;0.20;0.20;;;16.00;86.30;;;;;;4861595;29;20609;-77
2021/09/24 01:37:26;;;;;;;0.77;0.45;;;16.00;86.30;;;;;;4877707;29;20041;-77
2021/09/24 01:39:52;;;;;;;1.05;0.30;;;15.90;86.20;;;;;;4861706;29;20044;-77
2021/09/24 01:42:21;;;;;;;0.77;0.50;;;16.10;86.30;;;;;;4878280;29;20045;-77
2021/09/24 01:44:47;;;;;;;0.30;0.30;;;15.90;86.30;;;;;;4861766;29;20045;-77
2021/09/24 01:47:12;;;;;;;1.23;0.50;;;15.90;86.30;;;;;;4878415;29;20499;-77
2021/09/24 01:49:38;;;;;;;1.40;0.60;;;16.00;86.40;;;;;;4878242;29;20521;-77
2021/09/24 01:52:04;;;;;;;1.40;0.50;;;15.90;86.30;;;;;;4878537;29;20572;-77
2021/09/24 01:54:30;;;;;;;0.77;0.40;;;15.90;86.40;;;;;;4878119;29;20120;-77
2021/09/24 01:56:56;;;;;;;0.73;0.50;;;15.90;86.40;;;;;;4845737;29;20062;-77
2021/09/24 01:59:22;;;;;;;1.88;0.60;;;15.90;86.30;;;;;;4845931;29;20494;-77
2021/09/24 02:01:47;;;;;;;1.20;0.40;;;15.90;86.40;;;;;;4845643;29;20037;-77
2021/09/24 02:04:13;;;;;;;1.20;0.55;;;15.90;86.40;;;;;;4861353;29;20045;-77
2021/09/24 02:06:39;;;;;;;1.65;0.55;;;15.90;86.40;;;;;;4845849;29;20133;-77
2021/09/24 02:09:04;;;;;;;0.55;0.40;;;15.90;86.40;;;;;;4876693;29;20059;-77
2021/09/24 02:11:30;;;;;;;0.30;0.30;;;15.90;86.50;;;;;;4894352;29;20064;-77
2021/09/24 02:13:56;;;;;;;1.17;0.63;;;15.90;86.50;;;;;;4879437;29;20104;-76
2021/09/24 02:16:22;;;;;;;1.15;0.50;;;15.90;86.50;;;;;;4894101;29;20048;-76
2021/09/24 02:18:48;;;;;;;1.02;0.50;;;15.90;86.50;;;;;;4891958;29;20123;-77
2021/09/24 02:21:13;;;;;;;0.40;0.38;;;15.90;86.50;;;;;;4879850;29;20048;-77
2021/09/24 02:23:39;;;;;;;0.47;0.40;;;15.90;86.50;;;;;;4879785;29;20052;-77
2021/09/24 02:26:05;;;;;;;1.50;0.43;;;15.90;86.50;;;;;;4879130;29;20044;-76
2021/09/24 02:28:32;;;;;;;0.85;0.50;;;15.90;86.50;;;;;;4890494;29;21018;-77
2021/09/24 02:30:58;;;;;;;0.40;0.40;;;15.90;86.60;;;;;;4864013;29;20522;-76
2021/09/24 02:33:24;;;;;;;0.50;0.40;;;15.90;86.60;;;;;;4892074;29;20132;-77
2021/09/24 02:35:50;;;;;;;0.35;0.35;;;15.80;86.60;;;;;;4892100;29;20055;-76
2021/09/24 02:38:16;;;;;;;0.98;0.50;;;15.80;86.60;;;;;;4878003;29;20125;-77
2021/09/24 02:40:41;;;;;;;0.30;0.30;;;15.80;87.20;;;;;;4876142;29;20045;-76
2021/09/24 02:43:07;;;;;;;0.63;0.40;;;15.80;86.60;;;;;;4875257;29;20083;-77
2021/09/24 02:45:33;;;;;;;0.40;0.35;;;15.80;86.60;;;;;;4879319;29;20147;-77
2021/09/24 02:47:58;;;;;;;1.30;0.63;;;15.80;86.60;;;;;;4875797;29;20488;-77
2021/09/24 02:50:24;;;;;;;0.80;0.40;;;15.80;86.70;;;;;;4861997;29;20128;-77
2021/09/24 02:52:50;;;;;;;0.57;0.32;;;15.80;87.30;;;;;;4879427;29;20407;-76
2021/09/24 02:55:18;;;;;;;0.50;0.50;;;15.80;86.70;;;;;;4879408;29;20427;-76
2021/09/24 02:57:44;;;;;;;0.30;0.30;;;15.80;86.70;;;;;;4879423;29;20041;-77
2021/09/24 03:00:10;;;;;;;0.30;0.30;;;15.90;86.70;;;;;;4861785;29;20041;-77
2021/09/24 03:02:36;;;;;;;0.30;0.30;;;15.80;86.70;;;;;;4845237;29;20037;-77
2021/09/24 03:05:04;;;;;;;0.85;0.40;;;15.80;86.70;;;;;;4860228;29;20045;-77
2021/09/24 03:07:30;;;;;;;0.57;0.30;;;15.80;86.70;;;;;;4876862;29;20057;-77
2021/09/24 03:09:56;;;;;;;0.52;0.40;;;15.80;86.80;;;;;;4876788;29;20052;-77
2021/09/24 03:12:22;;;;;;;0.57;0.38;;;15.80;86.80;;;;;;4860631;29;20144;-77
2021/09/24 03:14:47;;;;;;;0.30;0.30;;;15.80;86.80;;;;;;4846305;29;20135;-78
2021/09/24 03:17:13;;;;;;;0.65;0.50;;;15.70;86.80;;;;;;4891830;29;20045;-77
2021/09/24 03:19:39;;;;;;;1.02;0.60;;;15.80;86.80;;;;;;4864190;29;20040;-77
2021/09/24 03:22:04;;;;;;;0.95;0.50;;;15.80;86.90;;;;;;4882628;29;20039;-77
2021/09/24 03:24:30;;;;;;;0.63;0.50;;;15.80;86.90;;;;;;4851468;29;20041;-77
2021/09/24 03:26:56;;;;;;;1.20;0.50;;;15.70;86.80;;;;;;4881013;29;20068;-77
2021/09/24 03:29:22;;;;;;;0.55;0.30;;;15.70;86.80;;;;;;4847786;29;20073;-76
2021/09/24 03:31:47;;;;;;;0.98;0.50;;;15.70;86.80;;;;;;4897442;29;20048;-77
2021/09/24 03:34:13;;;;;;;0.70;0.60;;;15.80;86.90;;;;;;4879714;29;20049;-77
2021/09/24 03:36:39;;;;;;;1.00;0.70;;;15.70;86.90;;;;;;4863275;29;20097;-77
2021/09/24 03:39:11;;;;;;;0.68;0.68;;;15.70;86.90;;;;;;4863187;29;20057;-76
2021/09/24 03:41:38;;;;;;;0.60;0.40;;;15.70;87.00;;;;;;4863270;29;20041;-76
2021/09/24 03:44:05;;;;;;;1.05;0.73;;;15.60;87.00;;;;;;4880539;29;20055;-77
2021/09/24 03:46:31;;;;;;;0.55;0.52;;;15.60;87.10;;;;;;4863144;29;20555;-77
2021/09/24 03:48:58;;;;;;;0.70;0.60;;;15.60;87.20;;;;;;4848154;29;20137;-76
2021/09/24 03:51:24;;;;;;;1.30;0.95;;;15.60;87.30;;;;;;4847645;29;20135;-77
2021/09/24 03:53:49;;;;;;;1.73;0.90;;;15.60;87.30;;;;;;4863268;29;20481;-76
2021/09/24 03:56:15;;;;;;;2.10;1.00;;;15.50;87.40;;;;;;4878193;29;20389;-76
2021/09/24 03:58:41;;;;;;;2.10;0.95;;;15.50;87.50;;;;;;4863501;29;20053;-77
2021/09/24 04:01:07;;;;;;;1.42;0.95;;;15.40;87.50;;;;;;4863037;29;20373;-78
2021/09/24 04:03:32;;;;;;;1.70;1.15;;;15.50;87.50;;;;;;4863317;29;20037;-76
2021/09/24 04:05:58;;;;;;;0.70;0.70;;;15.40;87.50;;;;;;4832382;29;20094;-78
2021/09/24 04:08:24;;;;;;;1.88;1.05;;;15.40;87.50;;;;;;4863529;29;20045;-77
2021/09/24 04:10:51;;;;;;;2.58;1.27;;;15.50;87.70;;;;;;4847596;29;20080;-76
2021/09/24 04:13:18;;;;;;;2.90;1.30;;;15.50;87.70;;;;;;4863521;29;20132;-76
2021/09/24 04:15:43;;;;;;;2.08;1.30;;;15.40;87.70;;;;;;4879244;29;20049;-76
2021/09/24 04:18:09;;;;;;;4.28;1.40;;;15.40;87.70;;;;;;4862574;29;20093;-76
2021/09/24 04:20:35;;;;;;;2.00;1.40;;;15.50;87.80;;;;;;4847320;29;20056;-77
2021/09/24 04:23:00;;;;;;;2.65;1.60;;;15.40;87.80;;;;;;4879041;29;20041;-76
2021/09/24 04:25:26;;;;;;;2.75;1.60;;;15.40;87.80;;;;;;4847054;29;20051;-77
2021/09/24 04:27:52;;;;;;;2.90;1.80;;;15.40;87.90;;;;;;4879537;29;20097;-77
2021/09/24 04:30:18;;;;;;;2.90;1.80;;;15.40;87.90;;;;;;4881197;29;20394;-77
2021/09/24 04:32:44;;;;;;;3.08;1.83;;;15.40;88.00;;;;;;4864541;29;20044;-76
2021/09/24 04:35:09;;;;;;;3.65;1.95;;;15.30;88.00;;;;;;4863894;29;20048;-77
2021/09/24 04:37:35;;;;;;;3.67;2.05;;;15.40;88.10;;;;;;4862193;29;20045;-77
2021/09/24 04:40:01;;;;;;;2.72;1.83;;;15.40;88.10;;;;;;4863033;29;20041;-77
2021/09/24 04:42:28;;;;;;;3.85;2.30;;;15.40;88.10;;;;;;4878623;29;20045;-77
2021/09/24 04:44:56;;;;;;;3.70;2.00;;;15.40;88.20;;;;;;4879239;29;20069;-77
2021/09/24 04:47:22;;;;;;;3.60;2.00;;;15.40;88.10;;;;;;4878921;29;20551;-77
2021/09/24 04:49:48;;;;;;;4.82;2.47;;;15.40;88.20;;;;;;4864151;29;20139;-77
2021/09/24 04:52:13;;;;;;;3.38;1.98;;;15.30;88.20;;;;;;4862171;29;20053;-77
2021/09/24 04:54:39;;;;;;;3.85;2.05;;;15.40;88.20;;;;;;4847690;29;20472;-77
2021/09/24 04:57:05;;;;;;;5.32;2.85;;;15.40;88.20;;;;;;4879392;29;20055;-77
2021/09/24 04:59:30;;;;;;;4.05;2.35;;;15.40;88.20;;;;;;4864812;29;20555;-77
2021/09/24 05:01:56;;;;;;;3.65;1.90;;;15.40;88.30;;;;;;4891834;29;20132;-76
2021/09/24 05:04:22;;;;;;;4.20;2.38;;;15.40;88.30;;;;;;4861945;29;20049;-76
2021/09/24 05:06:47;;;;;;;4.53;2.40;;;15.40;88.40;;;;;;4847414;29;20400;-77
2021/09/24 05:09:13;;;;;;;4.50;2.70;;;15.50;88.40;;;;;;4847538;29;20453;-77
2021/09/24 05:11:39;;;;;;;3.53;2.00;;;15.40;88.40;;;;;;4831796;29;20068;-77
2021/09/24 05:14:04;;;;;;;4.25;2.00;;;15.50;88.40;;;;;;4861738;29;20490;-77
2021/09/24 05:16:30;;;;;;;3.63;1.90;;;15.40;88.40;;;;;;4831122;29;20518;-77
2021/09/24 05:18:56;;;;;;;3.83;1.98;;;15.50;88.50;;;;;;4862039;29;20400;-77
2021/09/24 05:21:22;;;;;;;2.88;1.63;;;15.40;88.40;;;;;;4862272;29;20033;-77
2021/09/24 05:23:47;;;;;;;3.45;1.98;;;15.60;88.60;;;;;;4846586;29;20044;-77
2021/09/24 05:26:13;;;;;;;4.38;2.00;;;15.50;88.60;;;;;;4879210;29;20045;-76
2021/09/24 05:28:39;;;;;;;4.43;2.05;;;15.60;88.60;;;;;;4861818;29;20500;-76
2021/09/24 05:31:05;;;;;;;3.92;2.20;;;15.60;88.60;;;;;;4861829;29;20052;-77
2021/09/24 05:33:31;;;;;;;4.47;2.35;;;15.60;88.60;;;;;;4878154;29;20041;-77
2021/09/24 05:35:57;;;;;;;5.55;2.70;;;15.60;88.60;;;;;;4878706;29;20567;-78
2021/09/24 05:38:23;;;;;;;3.97;2.22;;;15.60;88.60;;;;;;4861781;29;20045;-76
2021/09/24 05:40:49;;;;;;;6.53;3.10;;;15.70;88.70;;;;;;4861454;29;20048;-78
2021/09/24 05:43:15;;;;;;;8.15;3.13;;;15.70;88.70;;;;;;4845869;29;20416;-77
2021/09/24 05:45:40;;;;;;;6.28;3.45;;;15.70;88.80;;;;;;4861100;29;20103;-77
2021/09/24 05:48:06;;;;;;;10.68;3.50;;;15.80;88.70;;;;;;4877958;29;20460;-80
2021/09/24 05:50:32;;;;;;;6.70;3.40;;;15.80;88.80;;;;;;4861543;29;20045;-81
2021/09/24 05:53:01;;;;;;;5.22;2.50;;;15.80;88.80;;;;;;4878224;29;20408;-80
2021/09/24 05:55:27;;;;;;;5.90;3.17;;;15.80;88.70;;;;;;4861986;29;20104;-81
2021/09/24 05:57:53;;;;;;;7.72;3.38;;;15.80;88.70;;;;;;4860774;29;20136;-81
2021/09/24 06:00:20;;;;;;;5.18;2.80;;;15.90;88.80;;;;;;4845694;29;20403;-80
2021/09/24 06:02:47;;;;;;;5.95;3.47;;;15.90;88.80;;;;;;4834627;29;20090;-81
2021/09/24 06:05:14;;;;;;;6.47;3.47;;;16.00;88.80;;;;;;4861823;29;20484;-82
2021/09/24 06:07:43;;;;;;;7.40;3.97;;;16.00;88.80;;;;;;4861673;29;20037;-80
2021/09/24 06:10:10;;;;;;;5.97;3.38;;;16.00;88.90;;;;;;4845984;29;20052;-80
2021/09/24 06:12:36;;;;;;;6.72;3.70;;;16.00;88.90;;;;;;4861484;29;20467;-80
2021/09/24 06:15:02;;;;;;;6.85;3.78;;;16.10;89.00;;;;;;4845970;29;20445;-81
2021/09/24 06:17:29;;;;;;;8.68;4.53;;;16.00;89.00;;;;;;4879352;29;20098;-80
2021/09/24 06:19:56;;;;;;;7.00;3.72;;;16.00;89.00;;;;;;4878543;29;20053;-79
2021/09/24 06:22:24;;;;;;;6.85;3.60;;;16.10;89.00;;;;;;4878330;29;20045;-78
2021/09/24 06:24:50;;;;;;;8.25;4.32;;;16.10;89.10;;;;;;4847710;29;20071;-79
2021/09/24 06:27:16;;;;;;;7.05;3.75;;;16.10;89.10;;;;;;4880140;29;20051;-78
2021/09/24 06:29:48;;;;;;;7.50;3.92;;;16.10;89.10;;;;;;4880457;29;20045;-78
2021/09/24 06:32:15;;;;;;;7.05;4.10;;;16.20;89.20;;;;;;4846492;29;20399;-78
2021/09/24 06:34:42;;;;;;;9.98;5.25;;;16.20;89.20;;;;;;4878221;29;20522;-79
2021/09/24 06:37:08;;;;;;;8.30;3.72;;;16.20;89.20;;;;;;4845752;29;20041;-78
2021/09/24 06:39:33;;;;;;;9.45;4.15;;;16.10;89.20;;;;;;4862578;29;20047;-83
2021/09/24 06:41:59;;;;;;;6.72;3.92;;;16.20;89.20;;;;;;4846667;29;20403;-79
2021/09/24 06:44:25;;;;;;;7.95;4.07;;;16.10;89.20;;;;;;4848401;29;20048;-78
2021/09/24 06:46:51;;;;;;;5.90;3.20;;;16.20;89.30;;;;;;4879771;29;20042;-80
2021/09/24 06:49:17;;;;;;;6.60;4.03;;;16.20;89.30;;;;;;4861914;29;20041;-79
2021/09/24 06:51:42;;;;;;;7.03;3.75;;;16.30;89.40;;;;;;4861199;29;20140;-80
2021/09/24 06:54:08;;;;;;;5.72;3.15;;;16.30;89.40;;;;;;4878665;29;20044;-79
2021/09/24 06:56:35;;;;;;;5.57;2.75;;;16.20;89.40;;;;;;4848858;29;20116;-78
2021/09/24 06:59:01;;;;;;;8.30;4.28;;;16.30;89.50;;;;;;4849013;29;20445;-79
2021/09/24 07:01:28;;;;;;;7.18;3.63;;;16.30;89.50;;;;;;4864693;29;20106;-78
2021/09/24 07:03:53;;;;;;;6.38;3.35;;;16.30;89.50;;;;;;4881692;29;20096;-80
2021/09/24 07:06:19;;;;;;;6.15;3.53;;;16.30;89.50;;;;;;4864388;29;20131;-80
2021/09/24 07:08:45;;;;;;;4.50;2.88;;;16.30;89.60;;;;;;4864269;29;20055;-79
2021/09/24 07:11:11;;;;;;;5.18;3.00;;;16.30;89.60;;;;;;4848671;29;20193;-79
2021/09/24 07:13:37;;;;;;;5.57;3.33;;;16.30;89.60;;;;;;4881263;29;20049;-80
2021/09/24 07:16:04;;;;;;;6.45;3.50;;;16.40;89.60;;;;;;4848438;29;20519;-80
2021/09/24 07:18:29;;;;;;;6.15;3.40;;;16.30;89.60;;;;;;4864179;29;20049;-81
2021/09/24 07:20:55;;;;;;;5.60;3.13;;;16.40;89.60;;;;;;4849296;29;20059;-80
2021/09/24 07:23:21;;;;;;;6.03;3.42;;;16.40;89.60;;;;;;4863988;29;20048;-81
2021/09/24 07:25:49;;;;;;;5.55;3.15;;;16.40;89.60;;;;;;4880670;29;20045;-80
2021/09/24 07:28:15;;;;;;;7.13;3.80;;;16.50;89.70;;;;;;4848964;29;20067;-81
2021/09/24 07:30:41;;;;;;;5.70;3.40;;;16.50;89.60;;;;;;4864446;29;20060;-80
2021/09/24 07:33:07;;;;;;;6.32;3.60;;;16.50;89.60;;;;;;4849229;29;20480;-80
2021/09/24 07:35:33;;;;;;;6.80;3.70;;;16.50;89.60;;;;;;4881663;29;20057;-79
2021/09/24 07:37:59;;;;;;;6.55;3.20;;;16.60;89.60;;;;;;4864233;29;20045;-80
2021/09/24 07:40:25;;;;;;;7.03;3.83;;;16.60;89.50;;;;;;4848441;29;20124;-80
2021/09/24 07:42:51;;;;;;;7.72;3.85;;;16.60;89.50;;;;;;4863773;29;20132;-80
2021/09/24 07:45:17;;;;;;;9.57;4.30;;;16.60;89.50;;;;;;4882353;29;20476;-81
2021/09/24 07:47:43;;;;;;;7.55;4.00;;;16.70;89.50;;;;;;4848474;29;20076;-80
2021/09/24 07:50:09;;;;;;;7.53;4.13;;;16.70;89.50;;;;;;4864081;29;20530;-80
2021/09/24 07:52:35;;;;;;;9.60;4.57;;;16.70;89.40;;;;;;4863759;29;20136;-80
2021/09/24 07:55:00;;;;;;;10.45;4.55;;;16.70;89.50;;;;;;4880668;29;20210;-80
2021/09/24 07:57:26;;;;;;;7.07;3.70;;;16.70;89.50;;;;;;4848478;29;20151;-80
2021/09/24 07:59:52;;;;;;;9.15;4.00;;;16.80;89.50;;;;;;4848185;29;20488;-82
2021/09/24 08:02:19;;;;;;;8.93;4.88;;;16.80;89.40;;;;;;4863683;29;20045;-79
2021/09/24 08:04:44;;;;;;;9.55;4.35;;;16.80;89.40;;;;;;4863012;29;20049;-79
2021/09/24 08:07:10;;;;;;;8.75;4.53;;;16.80;89.40;;;;;;4832456;29;20078;-80
2021/09/24 08:09:36;;;;;;;8.13;4.30;;;16.80;89.40;;;;;;4862984;29;20051;-80
2021/09/24 08:12:02;;;;;;;9.73;5.07;;;16.80;89.40;;;;;;4863025;29;20045;-81
2021/09/24 08:14:53;;;;;;;9.88;4.88;;;16.80;89.50;;;;;;4847929;29;20037;-83
2021/09/24 08:17:18;;;;;;;8.38;4.45;;;16.90;89.60;;;;;;4832728;29;20041;-78
2021/09/24 08:20:28;;;;;;;10.52;5.05;;;16.90;89.60;;;;;;4865950;29;20155;-83
2021/09/24 08:22:53;;;;;;;7.60;3.97;;;16.80;89.80;;;;;;4899147;29;20064;-82
2021/09/24 08:25:35;;;;;;;9.65;4.60;;;16.90;89.50;;;;;;4899517;29;20044;-84
2021/09/24 08:32:04;;;;;;;9.15;4.05;;;17.00;89.50;;;;;;4840771;29;20090;-81
2021/09/24 08:34:30;;;;;;;8.32;4.38;;;17.00;89.30;;;;;;4844153;29;20544;-78
2021/09/24 08:47:46;;;;;;;7.85;4.25;;;17.30;89.10;;;;;;4853778;29;20109;-82
2021/09/24 08:50:28;;;;;;;8.13;4.68;;;17.30;88.90;;;;;;4831438;29;20046;-82
2021/09/24 08:53:13;;;;;;;;;;;17.30;88.90;;;;;;4800287;29;20051;-81
2021/09/24 08:59:41;;;;;;;8.43;4.50;;;17.40;88.60;;;;;;4798799;29;20049;-82
2021/09/24 09:02:09;;;;;;;8.82;4.25;;;17.50;88.40;;;;;;4743074;30;20071;-80
2021/09/24 09:04:41;;;;;;;7.55;4.03;;;17.60;88.40;;;;;;4778724;30;20032;-83
2021/09/24 09:07:10;;;;;;;8.88;4.65;;;17.70;88.30;;;;;;4723977;30;20132;-83
2021/09/24 09:09:44;;;;;;;7.35;4.20;;;17.70;88.10;;;;;;4729709;30;20131;-81
2021/09/24 09:12:28;;;;;;;9.23;5.00;;;17.80;88.10;;;;;;4726455;30;20120;-83
2021/09/24 09:15:39;;;;;;;11.10;5.30;;;18.00;88.00;;;;;;4712341;30;20105;-84
2021/09/24 09:22:23;;;;;;;8.93;5.72;;;18.10;87.70;;;;;;4633673;30;20071;-83
2021/09/24 09:24:49;;;;;;;11.00;6.82;;;18.10;87.50;;;;;;4672550;30;20053;-81
2021/09/24 09:27:20;;;;;;;9.95;5.82;;;18.20;87.40;;;;;;4680311;30;20103;-82
2021/09/24 09:30:11;;;;;;;9.77;6.20;;;18.20;87.40;;;;;;4682436;30;20542;-81
2021/09/24 09:32:38;;;;;;;;;;;18.30;87.30;;;;;;4669199;30;20518;-80
2021/09/24 09:35:06;;;;;;;8.38;5.07;;;18.30;87.20;;;;;;4677586;30;20351;-79
2021/09/24 09:37:35;;;;;;;6.47;4.70;;;18.40;87.10;;;;;;4686817;30;20859;-78
2021/09/24 09:40:08;;;;;;;8.55;4.95;;;18.50;87.00;;;;;;4699467;30;20052;-79
2021/09/24 09:42:37;;;;;;;8.57;4.78;;;18.60;86.70;;;;;;4699507;30;20033;-78
2021/09/24 09:45:05;;;;;;;8.93;4.70;;;18.60;86.60;;;;;;4699231;30;20068;-78
2021/09/24 09:47:33;;;;;;;6.88;4.57;;;18.70;86.70;;;;;;4700092;30;20053;-80
2021/09/24 09:50:10;;;;;;;6.78;4.40;;;18.70;86.70;;;;;;4738148;30;20070;-84
2021/09/24 09:52:57;;;;;;;6.65;3.60;;;18.80;86.70;;;;;;4781602;30;20050;-80
2021/09/24 09:55:25;;;;;;;4.88;3.17;;;18.80;86.60;;;;;;4770721;30;20059;-80
2021/09/24 09:57:54;;;;;;;5.35;3.15;;;18.90;86.60;;;;;;4789982;29;20053;-81
2021/09/24 10:00:20;;;;;;;5.47;3.60;;;18.90;86.50;;;;;;4845492;29;20051;-80
2021/09/24 10:02:47;;;;;;;5.28;3.63;;;19.00;86.30;;;;;;4823878;29;20041;-80
2021/09/24 10:05:32;;;;;;;6.25;3.75;;;19.10;86.30;;;;;;4827344;29;20065;-81
2021/09/24 10:07:58;;;;;;;4.90;3.15;;;19.10;86.30;;;;;;4843759;29;20054;-81
2021/09/24 10:10:24;;;;;;;3.53;2.70;;;19.10;86.20;;;;;;4843176;29;20045;-80
2021/09/24 10:12:51;;;;;;;5.22;3.33;;;19.10;86.20;;;;;;4861849;29;20041;-80
2021/09/24 10:15:17;;;;;;;4.90;3.30;;;19.10;86.10;;;;;;4861135;29;20158;-82
2021/09/24 10:17:43;;;;;;;4.82;3.40;;;19.10;86.10;;;;;;4860441;29;20129;-80
2021/09/24 10:20:12;;;;;;;4.22;2.58;;;19.10;86.00;;;;;;4857336;29;20094;-81
2021/09/24 10:22:38;;;;;;;4.25;2.60;;;19.20;86.10;;;;;;4828360;29;20465;-79
2021/09/24 10:25:04;;;;;;;4.53;2.92;;;19.30;86.10;;;;;;4830156;29;20033;-80
2021/09/24 10:27:35;;;;;;;3.38;2.53;;;19.30;86.00;;;;;;4860787;29;20047;-81
2021/09/24 10:30:16;;;;;;;4.63;2.72;;;19.20;86.00;;;;;;4847321;29;20036;-80
2021/09/24 10:32:59;;;;;;;4.03;2.75;;;19.30;85.90;;;;;;4849418;29;20136;-82
2021/09/24 10:35:47;;;;;;;5.97;3.28;;;19.30;85.90;;;;;;4848397;29;20033;-80
2021/09/24 10:38:16;;;;;;;5.40;2.90;;;19.40;85.90;;;;;;4863612;29;20053;-79
2021/09/24 10:41:03;;;;;;;3.50;2.42;;;19.40;85.70;;;;;;4851977;29;20041;-81
2021/09/24 10:43:50;;;;;;;3.13;2.15;;;19.60;85.40;;;;;;4899264;29;20037;-80
2021/09/24 10:46:32;;;;;;;5.53;2.78;;;19.60;85.00;;;;;;4867100;29;20029;-80
2021/09/24 10:49:29;;;;;;;3.88;2.70;;;19.60;85.00;;;;;;4882649;29;20043;-78
2021/09/24 10:52:08;;;;;;;3.08;2.17;;;19.50;84.90;;;;;;4867562;29;20060;-81
2021/09/24 10:54:56;;;;;;;3.67;2.78;;;19.50;85.00;;;;;;4880887;29;20529;-81
2021/09/24 10:57:22;;;;;;;4.03;2.78;;;19.60;85.70;;;;;;4862673;29;20493;-80
2021/09/24 10:59:48;;;;;;;6.47;3.50;;;19.60;84.80;;;;;;4848015;29;20036;-81
2021/09/24 11:02:39;;;;;;;5.30;3.25;;;19.80;84.50;;;;;;4848136;29;20044;-79
2021/09/24 11:05:07;;;;;;;4.90;3.35;;;19.70;84.10;;;;;;4863689;29;20037;-84
2021/09/24 11:07:34;;;;;;;4.97;3.47;;;19.80;84.10;;;;;;4858754;29;20056;-81
2021/09/24 11:10:01;;;;;;;5.00;3.33;;;19.90;83.90;;;;;;4885351;29;20044;-81
2021/09/24 11:12:27;;;;;;;4.38;2.88;;;20.00;84.40;;;;;;4870602;29;20045;-82
2021/09/24 11:15:06;;;;;;;3.63;2.70;;;20.00;83.70;;;;;;4856676;29;20048;-81
2021/09/24 11:17:46;;;;;;;3.15;2.40;;;20.00;83.80;;;;;;4885213;29;20052;-79
2021/09/24 11:20:29;;;;;;;3.83;2.40;;;20.00;83.70;;;;;;4887320;29;20041;-79
2021/09/24 11:22:55;;;;;;;4.95;2.83;;;20.00;84.20;;;;;;4865591;29;20069;-78
2021/09/24 11:25:21;;;;;;;4.30;2.92;;;20.20;83.40;;;;;;4871641;29;20075;-79
2021/09/24 11:27:47;;;;;;;5.22;3.17;;;20.20;83.40;;;;;;4867695;29;20049;-80
2021/09/24 11:30:19;;;;;;;5.47;3.50;;;20.30;83.40;;;;;;4845348;29;20025;-79
2021/09/24 11:32:49;;;;;;;6.53;4.35;;;20.20;83.10;;;;;;4888118;29;20050;-79
2021/09/24 11:35:23;;;;;;;5.40;4.00;;;20.40;83.10;;;;;;4868640;29;20424;-80
2021/09/24 11:37:49;;;;;;;6.93;4.10;;;20.20;82.90;;;;;;4841377;29;20126;-81
2021/09/24 11:40:19;;;;;;;5.80;3.88;;;20.20;83.10;;;;;;4832187;29;20058;-79
2021/09/24 11:42:49;;;;;;;4.67;3.10;;;20.20;83.10;;;;;;4831380;29;20050;-78
2021/09/24 11:45:21;;;;;;;4.40;3.40;;;20.20;83.10;;;;;;4817579;29;20101;-79
2021/09/24 11:47:58;;;;;;;4.78;3.35;;;20.40;82.90;;;;;;4822439;29;20049;-77
2021/09/24 11:50:25;;;;;;;5.90;3.58;;;20.40;82.70;;;;;;4823071;29;20091;-78
2021/09/24 11:52:53;;;;;;;6.03;4.30;;;20.40;82.70;;;;;;4812404;29;20039;-80
2021/09/24 11:58:41;;;;;;;5.72;4.03;;;20.30;82.70;;;;;;4806994;29;20089;-83
2021/09/24 12:01:10;;;;;;;5.38;3.58;;;20.30;82.80;;;;;;4789436;30;20112;-80
2021/09/24 12:03:35;;;;;;;4.75;3.35;;;20.20;82.90;;;;;;4790981;30;20050;-80
2021/09/24 12:06:06;;;;;;;4.88;3.42;;;20.20;82.90;;;;;;4804321;29;20405;-81
2021/09/24 12:08:39;;;;;;;6.03;4.13;;;20.40;82.90;;;;;;4797154;29;20688;-80
2021/09/24 12:11:12;;;;;;;5.78;3.97;;;20.60;82.60;;;;;;4789014;29;20146;-83
2021/09/24 12:13:49;;;;;;;5.85;4.20;;;20.60;82.00;;;;;;4773099;30;20129;-78
2021/09/24 12:16:29;;;;;;;7.07;3.97;;;20.70;81.90;;;;;;4774945;30;20036;-78
2021/09/24 12:19:27;;;;;;;6.57;4.55;;;20.80;81.60;;;;;;4774191;30;20588;-81
2021/09/24 12:22:02;;;;;;;7.57;5.15;;;20.90;81.10;;;;;;4774898;30;20054;-79
2021/09/24 12:24:34;;;;;;;6.80;4.72;;;20.80;80.80;;;;;;4761362;30;20067;-82
2021/09/24 12:27:06;;;;;;;6.57;4.28;;;20.80;80.90;;;;;;4777315;30;20089;-80
2021/09/24 12:29:33;;;;;;;6.65;4.30;;;20.80;81.30;;;;;;4775951;30;20040;-80
2021/09/24 12:38:26;;;;;;;4.30;2.90;;;20.60;81.00;;;;;;4657184;30;20050;-80
2021/09/24 12:41:20;;;;;;;3.97;2.97;;;20.60;81.80;;;;;;4633504;30;20047;-80
2021/09/24 12:44:44;;;;;;;4.20;2.55;;;20.50;81.30;;;;;;4692233;30;20048;-86
2021/09/24 12:47:21;;;;;;;4.10;2.72;;;20.50;81.80;;;;;;4699855;30;20053;-79
2021/09/24 12:49:46;;;;;;;3.55;2.55;;;20.50;81.80;;;;;;4714352;30;20076;-78
2021/09/24 12:52:13;;;;;;;3.97;2.67;;;20.50;81.70;;;;;;4685640;30;20049;-83
2021/09/24 12:54:39;;;;;;;3.40;2.42;;;20.60;81.70;;;;;;4702919;30;20099;-83
2021/09/24 12:57:10;;;;;;;4.10;3.15;;;20.60;81.40;;;;;;4717315;30;20052;-82
2021/09/24 12:59:36;;;;;;;4.18;3.20;;;20.60;81.20;;;;;;4717568;30;20202;-79
2021/09/24 13:02:02;;;;;;;3.67;2.50;;;20.80;81.00;;;;;;4721046;30;20506;-82
2021/09/24 13:04:29;;;;;;;3.55;2.15;;;20.90;80.70;;;;;;4752989;30;20724;-81
2021/09/24 13:06:55;;;;;;;2.00;1.67;;;21.00;80.40;;;;;;4800096;29;20178;-80
2021/09/24 13:09:22;;;;;;;2.28;1.73;;;21.10;80.10;;;;;;4785729;30;20040;-84
2021/09/24 13:11:48;;;;;;;3.15;2.28;;;21.30;80.00;;;;;;4795941;29;20498;-82
2021/09/24 13:14:16;;;;;;;2.70;2.15;;;21.30;79.60;;;;;;4821977;29;20042;-80
2021/09/24 13:16:42;;;;;;;3.22;2.15;;;21.20;79.60;;;;;;4819988;29;20094;-80
2021/09/24 13:19:08;;;;;;;5.95;3.00;;;21.20;79.80;;;;;;4792500;29;20548;-78
2021/09/24 13:21:35;;;;;;;3.33;2.47;;;21.10;79.70;;;;;;4823518;29;20039;-82
2021/09/24 13:24:01;;;;;;;3.03;2.00;;;21.10;79.90;;;;;;4873670;29;20052;-80
2021/09/24 13:26:28;;;;;;;2.53;2.10;;;21.20;80.00;;;;;;4881603;29;20586;-82
2021/09/24 13:28:53;;;;;;;2.83;2.00;;;21.10;80.00;;;;;;4851513;29;20037;-80